Time;durP1;ratioP1;P1;durP2;ratioP2;P2;SDS_P1;SDS_P2;PMS_P1;PMS_P2;Temp;Humidity;BMP_temperature;BMP_pressure;BME280_temperature;BME280_humidity;BME280_pressure;Samples;Min_cycle;Max_cycle;Signal;HPM_P1;HPM_P2
2024/02/15 00:00:37;;;;;;;1536.03;690.58;;;;;;;21.40;41.59;101480.44;5005282;28;20034;-86
2024/02/15 00:03:06;;;;;;;1535.10;690.30;;;;;;;21.35;41.80;101481.94;5018341;28;20033;-87
2024/02/15 00:05:34;;;;;;;1528.60;689.72;;;;;;;21.32;41.65;101475.16;5019150;28;20382;-86
2024/02/15 00:08:00;;;;;;;1528.45;690.78;;;;;;;21.15;41.82;101456.84;5036064;28;20569;-86
2024/02/15 00:10:25;;;;;;;1519.30;688.75;;;;;;;20.97;41.73;101439.38;5001713;28;20049;-85
2024/02/15 00:12:51;;;;;;;1525.95;689.05;;;;;;;21.33;41.85;101495.34;5021613;28;20037;-86
2024/02/15 00:15:17;;;;;;;1530.70;691.00;;;;;;;21.32;41.46;101500.81;5020396;28;20044;-86
2024/02/15 00:17:42;;;;;;;1528.78;689.63;;;;;;;21.30;41.88;101487.75;5014674;28;20966;-86
2024/02/15 00:20:09;;;;;;;1541.13;694.08;;;;;;;21.36;41.51;101504.78;5019082;28;20048;-85
2024/02/15 00:22:36;;;;;;;1549.50;694.25;;;;;;;21.41;41.88;101524.47;4991849;28;20089;-85
2024/02/15 00:25:02;;;;;;;1531.72;688.47;;;;;;;21.45;41.87;101513.53;5020836;28;20048;-86
2024/02/15 00:27:28;;;;;;;1535.43;692.05;;;;;;;21.42;41.95;101504.91;5002875;28;20057;-85
2024/02/15 00:29:53;;;;;;;1537.43;692.95;;;;;;;21.38;41.72;101505.44;5007571;28;20504;-85
2024/02/15 00:32:19;;;;;;;1530.93;691.40;;;;;;;21.40;41.79;101506.94;5028023;28;20021;-85
2024/02/15 00:34:44;;;;;;;1528.32;689.38;;;;;;;21.39;41.91;101504.44;5026733;28;20029;-86
2024/02/15 00:37:10;;;;;;;1524.70;688.95;;;;;;;21.32;41.76;101511.41;5013598;28;20042;-86
2024/02/15 00:39:35;;;;;;;1521.85;688.67;;;;;;;21.26;41.61;101493.59;5010499;28;20079;-86
2024/02/15 00:42:01;;;;;;;1522.03;688.60;;;;;;;21.41;41.63;101526.28;5023748;28;20065;-86
2024/02/15 00:44:27;;;;;;;1532.28;691.13;;;;;;;21.28;41.58;101500.34;5010024;28;20092;-86
2024/02/15 00:46:53;;;;;;;1530.47;689.42;;;;;;;21.24;41.76;101492.91;4998001;28;20070;-85
2024/02/15 00:49:21;;;;;;;1536.10;693.00;;;;;;;21.38;42.00;101519.53;4998451;28;20053;-86
2024/02/15 00:51:47;;;;;;;1532.45;689.92;;;;;;;21.35;41.99;101524.31;5025977;28;20025;-85
2024/02/15 00:54:13;;;;;;;1538.15;692.17;;;;;;;21.21;41.79;101488.78;5018741;28;20599;-86
2024/02/15 00:56:38;;;;;;;1535.75;691.10;;;;;;;21.25;41.82;101503.34;4994795;28;20528;-86
2024/02/15 00:59:05;;;;;;;1533.82;689.40;;;;;;;21.34;41.65;101528.78;5015016;28;20560;-86
2024/02/15 01:01:31;;;;;;;1519.13;687.17;;;;;;;21.22;42.01;101511.63;5018968;28;20355;-85
2024/02/15 01:03:56;;;;;;;1531.25;690.63;;;;;;;21.21;41.70;101501.19;5023978;28;20057;-86
2024/02/15 01:06:23;;;;;;;1524.55;691.10;;;;;;;21.12;41.71;101490.63;5024163;28;20041;-86
2024/02/15 01:08:48;;;;;;;1526.03;690.47;;;;;;;21.31;41.96;101528.31;5020764;28;20087;-86
2024/02/15 01:11:14;;;;;;;1528.72;690.53;;;;;;;21.08;41.75;101499.91;5008684;28;20643;-86
2024/02/15 01:13:40;;;;;;;1517.75;687.10;;;;;;;21.21;41.52;101509.13;5006673;28;20049;-85
2024/02/15 01:16:07;;;;;;;1520.53;689.25;;;;;;;21.17;41.81;101507.81;5022983;28;20055;-85
2024/02/15 01:18:32;;;;;;;1522.85;689.13;;;;;;;21.16;41.96;101503.50;5024923;28;20115;-85
2024/02/15 01:20:58;;;;;;;1519.10;687.90;;;;;;;21.26;41.91;101522.72;5001245;28;20119;-85
2024/02/15 01:23:25;;;;;;;1516.65;688.22;;;;;;;21.15;41.74;101493.91;5023302;28;20587;-86
2024/02/15 01:25:52;;;;;;;1533.22;691.65;;;;;;;21.28;41.79;101528.66;5002943;28;20052;-85
2024/02/15 01:28:17;;;;;;;1532.45;693.33;;;;;;;21.26;42.00;101518.25;5005511;28;20052;-85
2024/02/15 01:30:43;;;;;;;1518.55;687.50;;;;;;;21.05;41.81;101491.50;5024785;28;20610;-85
2024/02/15 01:33:11;;;;;;;1524.28;691.22;;;;;;;21.07;41.83;101490.31;4995661;28;20045;-85
2024/02/15 01:35:38;;;;;;;1516.55;688.17;;;;;;;21.19;41.95;101508.50;5009210;28;20044;-85
2024/02/15 01:38:04;;;;;;;1513.50;690.40;;;;;;;21.02;41.97;101490.00;5022468;28;20095;-85
2024/02/15 01:40:29;;;;;;;1513.70;690.28;;;;;;;21.18;42.10;101518.22;4995123;28;20131;-85
2024/02/15 01:42:55;;;;;;;1525.05;692.95;;;;;;;20.96;41.79;101477.44;5015732;28;20084;-85
2024/02/15 01:45:21;;;;;;;1523.25;691.90;;;;;;;21.12;41.98;101503.84;5005608;28;20044;-85
2024/02/15 01:47:49;;;;;;;1528.53;695.05;;;;;;;21.01;41.76;101495.50;5020518;28;20696;-85
2024/02/15 01:50:17;;;;;;;1530.13;694.53;;;;;;;21.20;41.95;101524.22;5020963;28;20142;-85
2024/02/15 01:52:47;;;;;;;1536.78;697.47;;;;;;;21.12;41.88;101513.63;5004016;28;20045;-85
2024/02/15 01:55:14;;;;;;;1538.22;699.25;;;;;;;20.59;41.99;101442.81;5024592;28;20044;-85
2024/02/15 01:57:44;;;;;;;1538.25;701.72;;;;;;;20.75;41.83;101458.66;4989462;28;20132;-85
2024/02/15 02:00:12;;;;;;;1528.38;693.92;;;;;;;21.02;41.97;101497.13;5009006;28;20292;-85
2024/02/15 02:02:41;;;;;;;1530.90;698.63;;;;;;;21.08;41.88;101505.22;5016999;28;20046;-85
2024/02/15 02:05:07;;;;;;;1540.90;702.88;;;;;;;20.79;41.73;101462.59;5023909;28;20047;-85
2024/02/15 02:07:33;;;;;;;1558.60;709.08;;;;;;;20.91;41.85;101478.97;5018138;28;20614;-85
2024/02/15 02:09:59;;;;;;;1557.38;711.40;;;;;;;21.08;41.86;101514.97;5019982;28;20033;-85
2024/02/15 02:12:27;;;;;;;1549.75;704.97;;;;;;;21.01;41.95;101509.56;5000925;28;20179;-84
2024/02/15 02:14:56;;;;;;;1558.72;709.50;;;;;;;21.07;41.94;101519.44;5007821;28;20038;-85
2024/02/15 02:17:22;;;;;;;1555.97;710.10;;;;;;;21.15;41.77;101529.16;5004899;28;20033;-85
2024/02/15 02:19:50;;;;;;;1559.10;709.60;;;;;;;21.11;41.89;101525.22;5017117;28;20817;-86
2024/02/15 02:22:18;;;;;;;1546.97;703.50;;;;;;;21.01;42.02;101509.56;4981596;28;1142555;-85
2024/02/15 02:25:06;;;;;;;1563.28;711.15;;;;;;;21.11;41.95;101515.44;5023402;28;20041;-85
2024/02/15 02:27:38;;;;;;;1559.18;714.38;;;;;;;21.08;41.89;101501.72;5026788;28;20048;-85
2024/02/15 02:30:06;;;;;;;1565.05;714.40;;;;;;;21.03;41.79;101496.13;5019791;28;20646;-85
2024/02/15 02:32:35;;;;;;;1561.93;714.10;;;;;;;20.87;42.03;101475.84;5006654;28;20053;-85
2024/02/15 02:35:03;;;;;;;1545.65;707.35;;;;;;;21.09;41.87;101513.97;5023953;28;20037;-85
2024/02/15 02:37:28;;;;;;;1556.55;712.90;;;;;;;20.97;42.02;101492.34;5037687;28;20038;-84
2024/02/15 02:39:54;;;;;;;1540.63;702.03;;;;;;;20.94;42.07;101499.78;5008831;28;21368;-85
2024/02/15 02:42:20;;;;;;;1525.90;692.95;;;;;;;21.01;41.94;101498.97;5009346;28;20033;-85
2024/02/15 02:44:46;;;;;;;1514.28;681.00;;;;;;;21.08;41.81;101510.50;5019565;28;20045;-85
2024/02/15 02:47:12;;;;;;;1540.07;694.58;;;;;;;21.05;42.02;101521.44;5020536;28;20381;-85
2024/02/15 02:49:37;;;;;;;1499.85;681.80;;;;;;;20.92;41.91;101496.50;5018011;28;20301;-86
2024/02/15 02:52:04;;;;;;;1539.07;696.03;;;;;;;21.08;41.83;101520.28;5021205;28;20029;-85
2024/02/15 02:54:29;;;;;;;1538.80;697.30;;;;;;;21.06;41.99;101514.31;5005180;28;20041;-85
2024/02/15 02:56:55;;;;;;;1544.53;697.75;;;;;;;20.91;42.00;101495.66;5016166;28;20041;-85
2024/02/15 02:59:21;;;;;;;1527.93;694.33;;;;;;;20.89;41.87;101502.13;5021305;28;20033;-86
2024/02/15 03:01:47;;;;;;;1548.60;703.30;;;;;;;20.50;42.23;101439.41;5022511;28;21050;-86
2024/02/15 03:04:16;;;;;;;1525.15;694.60;;;;;;;21.01;41.85;101508.72;5020189;28;20052;-85
2024/02/15 03:06:43;;;;;;;1503.97;689.33;;;;;;;21.02;41.85;101502.44;5016281;28;20041;-86
2024/02/15 03:09:09;;;;;;;1477.45;679.72;;;;;;;21.03;42.01;101512.84;5020722;28;20091;-85
2024/02/15 03:11:36;;;;;;;1483.82;679.20;;;;;;;20.32;41.82;101396.41;5020129;28;20088;-85
2024/02/15 03:14:04;;;;;;;1477.18;675.78;;;;;;;20.95;41.91;101498.78;4996100;28;20055;-86
2024/02/15 03:16:33;;;;;;;1472.80;672.13;;;;;;;21.00;42.11;101509.69;5001570;28;20111;-85
2024/02/15 03:19:02;;;;;;;1460.53;669.38;;;;;;;20.99;41.95;101506.22;5022921;28;20053;-85
2024/02/15 03:21:28;;;;;;;1466.50;671.10;;;;;;;20.98;41.94;101503.75;5022446;28;20560;-86
2024/02/15 03:23:54;;;;;;;1494.82;681.15;;;;;;;20.75;42.33;101472.72;5009591;28;20049;-83
2024/02/15 03:26:30;;;;;;;1490.88;680.17;;;;;;;20.93;41.72;101490.19;5022305;28;20045;-85
2024/02/15 03:28:56;;;;;;;1495.88;678.70;;;;;;;20.94;41.81;101487.38;5022557;28;20477;-86
2024/02/15 03:31:22;;;;;;;1483.18;677.75;;;;;;;20.96;42.31;101495.97;5004049;28;20029;-85
2024/02/15 03:33:49;;;;;;;1491.63;679.20;;;;;;;20.84;41.96;101472.72;5017577;28;20038;-85
2024/02/15 03:36:18;;;;;;;1495.40;686.33;;;;;;;20.63;42.04;101452.91;4998799;28;20111;-85
2024/02/15 03:38:44;;;;;;;1504.78;691.38;;;;;;;20.98;41.85;101501.09;5005322;28;20030;-85
2024/02/15 03:41:10;;;;;;;1524.55;694.28;;;;;;;20.90;42.07;101493.19;5023512;28;20120;-85
2024/02/15 03:43:35;;;;;;;1515.57;693.42;;;;;;;20.40;41.88;101417.56;5004491;28;20144;-85
2024/02/15 03:46:01;;;;;;;1516.50;692.13;;;;;;;20.91;42.09;101497.50;5022635;28;20581;-85
2024/02/15 03:48:27;;;;;;;1528.35;697.38;;;;;;;20.86;42.21;101495.38;5021712;28;20463;-85
2024/02/15 03:50:52;;;;;;;1524.60;695.95;;;;;;;20.68;41.95;101461.19;5023733;28;20053;-85
2024/02/15 03:53:18;;;;;;;1537.00;701.85;;;;;;;20.86;42.04;101490.06;5021158;28;20045;-84
2024/02/15 03:55:44;;;;;;;1529.88;698.35;;;;;;;20.89;42.27;101495.03;5001950;28;20046;-84
2024/02/15 03:58:09;;;;;;;1546.60;708.90;;;;;;;20.74;42.19;101479.00;5019399;28;20045;-85
2024/02/15 04:00:35;;;;;;;1549.32;709.50;;;;;;;20.74;42.10;101480.84;5019971;28;20045;-84
2024/02/15 04:03:00;;;;;;;1551.65;711.63;;;;;;;20.79;42.08;101489.09;5012626;28;20088;-85
2024/02/15 04:05:26;;;;;;;1561.63;714.72;;;;;;;20.86;41.89;101495.38;5015236;28;20068;-85
2024/02/15 04:07:53;;;;;;;1560.03;714.67;;;;;;;20.33;42.22;101411.28;5020778;28;20716;-85
2024/02/15 04:10:19;;;;;;;1562.13;714.50;;;;;;;20.83;42.18;101481.66;5017474;28;20049;-85
2024/02/15 04:12:44;;;;;;;1562.03;716.05;;;;;;;20.89;42.16;101496.84;5024006;28;20114;-85
2024/02/15 04:15:16;;;;;;;1559.22;716.63;;;;;;;20.83;41.88;101479.00;5017461;28;20033;-84
2024/02/15 04:17:44;;;;;;;1556.15;712.28;;;;;;;20.88;42.20;101489.91;5017256;28;20124;-85
2024/02/15 04:20:11;;;;;;;1552.85;714.22;;;;;;;20.82;42.00;101483.44;5021426;28;20045;-84
2024/02/15 04:22:37;;;;;;;1551.03;710.72;;;;;;;20.72;41.96;101456.38;5019591;28;20440;-86
2024/02/15 04:25:10;;;;;;;1541.95;705.35;;;;;;;20.50;41.98;101429.63;5004215;28;20462;-85
2024/02/15 04:27:36;;;;;;;1551.43;709.83;;;;;;;20.80;41.98;101477.50;5018682;28;20041;-85
2024/02/15 04:30:02;;;;;;;1558.15;712.67;;;;;;;20.16;42.06;101366.38;5003275;28;20082;-86
2024/02/15 04:32:28;;;;;;;1559.00;714.60;;;;;;;20.85;42.11;101490.25;5001369;28;20481;-86
2024/02/15 04:34:54;;;;;;;1549.45;712.50;;;;;;;20.87;41.94;101488.25;5018274;28;20041;-85
2024/02/15 04:37:20;;;;;;;1554.85;712.95;;;;;;;20.64;42.07;101456.38;5004534;28;20045;-85
2024/02/15 04:39:46;;;;;;;1544.00;712.30;;;;;;;20.67;41.98;101456.88;5017216;28;20041;-86
2024/02/15 04:42:12;;;;;;;1550.47;712.33;;;;;;;20.79;42.08;101489.09;5009286;28;20051;-86
2024/02/15 04:44:41;;;;;;;1542.70;709.85;;;;;;;20.62;42.06;101461.00;5015741;28;20049;-86
2024/02/15 04:47:07;;;;;;;1544.28;710.97;;;;;;;20.82;42.02;101488.72;4990443;28;20444;-85
2024/02/15 04:49:33;;;;;;;1535.72;707.42;;;;;;;20.80;42.11;101483.63;5019352;28;20041;-85
2024/02/15 04:52:01;;;;;;;1546.90;709.78;;;;;;;20.66;41.94;101457.06;5006850;28;20093;-85
2024/02/15 04:54:27;;;;;;;1535.85;708.85;;;;;;;20.70;42.03;101469.75;5000501;28;20040;-86
2024/02/15 04:56:54;;;;;;;1537.55;708.05;;;;;;;20.82;42.00;101486.09;4996207;28;20041;-85
2024/02/15 04:59:21;;;;;;;1548.72;712.22;;;;;;;20.55;42.20;101449.47;5008508;28;20064;-85
2024/02/15 05:01:49;;;;;;;1543.75;713.63;;;;;;;20.82;42.00;101488.72;5019068;28;20045;-85
2024/02/15 05:04:15;;;;;;;1544.88;715.50;;;;;;;20.71;41.94;101462.66;5017307;28;20049;-85
2024/02/15 05:06:40;;;;;;;1543.93;713.20;;;;;;;20.57;42.28;101453.59;5006908;28;20091;-85
2024/02/15 05:09:10;;;;;;;1546.22;715.80;;;;;;;20.26;42.15;101389.13;5027239;28;20049;-85
2024/02/15 05:11:46;;;;;;;1550.32;718.95;;;;;;;20.79;42.22;101463.44;5016117;28;20099;-85
2024/02/15 05:14:12;;;;;;;1539.88;715.65;;;;;;;20.58;42.14;101439.34;5020482;28;20120;-85
2024/02/15 05:16:42;;;;;;;1535.47;712.45;;;;;;;20.73;42.24;101453.53;5024858;28;20095;-86
2024/02/15 05:19:11;;;;;;;1547.45;712.20;;;;;;;20.77;42.04;101443.44;5009071;28;20085;-86
2024/02/15 05:21:37;;;;;;;1554.97;717.15;;;;;;;20.61;42.15;101412.56;5004389;28;20075;-86
2024/02/15 05:24:04;;;;;;;1553.40;720.10;;;;;;;20.48;42.05;101380.53;5023439;28;20038;-85
2024/02/15 05:26:29;;;;;;;1554.72;719.50;;;;;;;20.76;41.96;101420.59;4988484;28;20815;-85
2024/02/15 05:28:55;;;;;;;1556.35;721.22;;;;;;;20.76;41.91;101412.66;5024649;28;20045;-86
2024/02/15 05:31:22;;;;;;;1565.18;725.70;;;;;;;20.56;41.99;101388.44;5020339;28;20053;-86
2024/02/15 05:33:47;;;;;;;1558.20;723.78;;;;;;;20.75;41.88;101413.66;5024531;28;20126;-86
2024/02/15 05:36:14;;;;;;;1555.28;718.70;;;;;;;20.68;42.10;101416.19;5023395;28;20097;-85
2024/02/15 05:38:40;;;;;;;1546.57;717.95;;;;;;;20.69;42.15;101423.13;5022536;28;20037;-86
2024/02/15 05:41:10;;;;;;;1550.28;718.53;;;;;;;20.75;42.06;101416.31;5019557;28;20044;-86
2024/02/15 05:43:36;;;;;;;1537.63;715.95;;;;;;;20.67;42.09;101405.78;5024854;28;20041;-85
2024/02/15 05:46:03;;;;;;;1557.18;721.92;;;;;;;20.59;42.19;101400.50;5027540;28;20034;-85
2024/02/15 05:48:28;;;;;;;1565.00;725.58;;;;;;;20.65;42.06;101408.59;5011433;28;20385;-85
2024/02/15 05:50:58;;;;;;;1567.20;726.05;;;;;;;20.52;42.12;101385.31;5023642;28;20025;-86
2024/02/15 05:53:24;;;;;;;;;;;;;;;20.74;42.01;101419.97;5033679;28;20036;-85
2024/02/15 05:55:50;;;;;;;1576.78;729.80;;;;;;;20.76;41.92;101415.31;5002944;28;19921;-85
2024/02/15 05:58:16;;;;;;;1564.72;728.40;;;;;;;20.57;42.07;101398.03;5001801;28;20081;-85
2024/02/15 06:00:44;;;;;;;1570.20;728.47;;;;;;;20.74;42.17;101430.53;5001863;28;20065;-86
2024/02/15 06:03:12;;;;;;;1552.85;721.47;;;;;;;20.64;42.10;101408.75;5021778;28;20659;-85
2024/02/15 06:05:39;;;;;;;1552.45;719.10;;;;;;;20.67;42.19;101430.41;5021976;28;20049;-85
2024/02/15 06:08:05;;;;;;;1555.43;721.70;;;;;;;20.46;42.10;101393.91;4986234;28;20096;-85
2024/02/15 06:10:30;;;;;;;1564.85;724.83;;;;;;;20.70;42.27;101423.94;5003826;28;20471;-85
2024/02/15 06:12:58;;;;;;;1558.45;722.47;;;;;;;20.77;41.96;101432.84;5029223;28;20045;-86
2024/02/15 06:15:23;;;;;;;1571.00;724.75;;;;;;;20.59;42.14;101409.25;5022078;28;20072;-85
2024/02/15 06:17:49;;;;;;;1563.35;726.45;;;;;;;20.54;42.30;101394.91;5010571;28;20041;-85
2024/02/15 06:20:17;;;;;;;1574.85;730.13;;;;;;;20.71;42.14;101431.72;5020738;28;20106;-85
2024/02/15 06:22:46;;;;;;;1572.80;730.97;;;;;;;20.61;42.19;101414.38;5022498;28;20053;-85
2024/02/15 06:25:20;;;;;;;1565.65;726.05;;;;;;;20.73;41.97;101424.44;5016731;28;20722;-86
2024/02/15 06:27:46;;;;;;;1575.07;730.83;;;;;;;20.63;42.00;101394.69;5017482;28;20049;-85
2024/02/15 06:41:10;;;;;;;1598.43;748.97;;;;;;;20.66;42.17;101417.34;5020818;28;20207;-85
2024/02/15 06:43:36;;;;;;;1606.63;752.53;;;;;;;20.75;42.25;101426.91;5004235;28;20052;-85
2024/02/15 06:46:02;;;;;;;1595.10;744.90;;;;;;;20.65;42.02;101413.88;5017860;28;20140;-85
2024/02/15 06:48:28;;;;;;;1604.13;753.13;;;;;;;20.72;42.34;101421.97;5020137;28;20509;-86
2024/02/15 06:50:54;;;;;;;1602.10;748.92;;;;;;;20.65;42.16;101408.59;5002388;28;20052;-86
2024/02/15 06:53:20;;;;;;;1603.97;748.83;;;;;;;20.46;42.18;101382.50;5021249;28;20044;-85
2024/02/15 06:55:48;;;;;;;1598.57;746.85;;;;;;;20.64;42.10;101403.44;5015869;28;20416;-86
2024/02/15 06:58:17;;;;;;;1607.45;748.38;;;;;;;20.71;42.22;101417.66;5019720;28;20040;-88
2024/02/15 07:00:43;;;;;;;1601.32;748.97;;;;;;;20.75;42.03;101418.97;5015103;28;20033;-87
2024/02/15 07:03:10;;;;;;;1613.10;749.50;;;;;;;20.61;41.91;101390.56;5018201;28;20116;-86
2024/02/15 07:05:38;;;;;;;1587.95;740.00;;;;;;;20.59;42.23;101396.03;5020158;28;20040;-86
2024/02/15 07:08:05;;;;;;;1589.78;738.83;;;;;;;20.64;42.36;101403.44;5023114;28;20025;-87
2024/02/15 07:10:31;;;;;;;1587.22;736.00;;;;;;;20.16;42.06;101331.16;5006686;28;20029;-85
2024/02/15 07:12:57;;;;;;;1608.15;746.35;;;;;;;20.68;42.29;101410.91;5019063;28;20094;-85
2024/02/15 07:15:23;;;;;;;1596.55;742.53;;;;;;;20.63;42.09;101407.09;5013107;28;20037;-84
2024/02/15 07:17:48;;;;;;;1620.40;750.05;;;;;;;20.63;42.13;101407.09;5019941;28;20103;-84
2024/02/15 07:20:17;;;;;;;1646.40;759.45;;;;;;;20.68;42.29;101413.53;5020189;28;20043;-84
2024/02/15 07:22:45;;;;;;;1640.85;760.25;;;;;;;20.59;42.18;101398.66;5022833;28;20437;-85
2024/02/15 07:25:11;;;;;;;1641.07;759.58;;;;;;;20.79;42.17;101425.56;5019396;28;20037;-85
2024/02/15 07:27:37;;;;;;;1656.97;767.20;;;;;;;20.65;42.01;101410.41;5005602;28;20040;-84
2024/02/15 07:30:04;;;;;;;1685.57;791.08;;;;;;;20.47;42.17;101386.81;5020580;28;20037;-85
2024/02/15 07:32:31;;;;;;;1640.13;760.33;;;;;;;20.60;42.12;101404.78;5018249;28;20398;-85
2024/02/15 07:34:57;;;;;;;1627.10;753.10;;;;;;;20.82;42.02;101425.22;5022158;28;20041;-85
2024/02/15 07:37:26;;;;;;;1626.25;753.17;;;;;;;20.95;41.87;101429.97;5023056;28;20091;-85
2024/02/15 07:39:52;;;;;;;1619.95;751.75;;;;;;;21.00;41.38;101409.06;5016714;28;20104;-84
2024/02/15 07:42:17;;;;;;;1616.70;750.25;;;;;;;21.25;41.04;101417.75;5024685;28;20093;-85
2024/02/15 07:44:43;;;;;;;1615.13;749.42;;;;;;;21.69;40.56;101433.84;5022786;28;20072;-85
2024/02/15 07:47:10;;;;;;;1619.80;751.38;;;;;;;21.97;40.05;101431.47;5023529;28;20044;-85
2024/02/15 07:49:36;;;;;;;1608.43;746.92;;;;;;;22.03;39.99;101426.28;5018851;28;20541;-85
2024/02/15 07:52:04;;;;;;;1605.10;745.83;;;;;;;21.86;40.22;101415.97;5019873;28;20030;-86
2024/02/15 07:54:30;;;;;;;1593.50;742.38;;;;;;;21.92;40.46;101437.31;5019537;28;20080;-84
2024/02/15 07:56:58;;;;;;;1070.90;473.65;;;;;;;21.79;42.51;101426.50;5017830;28;20747;-81
2024/02/15 07:59:23;;;;;;;1059.00;477.00;;;;;;;21.57;41.66;101395.53;5016525;28;20044;-80
2024/02/15 08:01:50;;;;;;;1042.88;470.95;;;;;;;21.78;41.62;101419.53;5015912;28;20365;-81
2024/02/15 08:04:17;;;;;;;1088.13;488.85;;;;;;;21.68;41.76;101408.34;5020352;28;20491;-82
2024/02/15 08:06:43;;;;;;;1118.75;503.08;;;;;;;21.70;41.60;101415.09;5016034;28;20050;-81
2024/02/15 08:09:13;;;;;;;1122.35;504.27;;;;;;;21.65;41.61;101417.47;5015333;28;20042;-81
2024/02/15 08:11:40;;;;;;;1140.75;509.27;;;;;;;21.47;41.88;101387.81;5018787;28;20528;-82
2024/02/15 08:14:08;;;;;;;1143.90;511.92;;;;;;;21.59;41.92;101417.38;5021230;28;20052;-83
2024/02/15 08:16:36;;;;;;;1109.50;500.17;;;;;;;21.60;41.69;101427.78;5016169;28;20643;-82
2024/02/15 08:19:01;;;;;;;1150.55;517.58;;;;;;;21.46;41.99;101404.72;5018198;28;20363;-82
2024/02/15 08:21:29;;;;;;;1187.45;531.53;;;;;;;21.54;41.84;101432.97;5017240;28;20088;-83
2024/02/15 08:23:55;;;;;;;1181.45;527.63;;;;;;;21.55;42.14;101426.69;5015860;28;20046;-83
2024/02/15 08:26:22;;;;;;;1224.28;537.75;;;;;;;21.36;42.15;101409.41;4997975;28;20041;-82
2024/02/15 08:28:47;;;;;;;1244.63;544.35;;;;;;;21.49;42.00;101425.53;5017219;28;20041;-83
2024/02/15 08:31:15;;;;;;;1219.75;536.17;;;;;;;21.33;42.48;101409.75;5021752;28;20088;-82
2024/02/15 08:33:42;;;;;;;1229.85;541.35;;;;;;;21.43;42.40;101428.91;5019164;28;20458;-82
2024/02/15 08:36:10;;;;;;;1227.70;538.40;;;;;;;21.35;42.15;101418.34;5020831;28;20053;-82
2024/02/15 08:38:39;;;;;;;1242.05;545.40;;;;;;;21.45;42.36;101429.56;5019264;28;20086;-82
2024/02/15 08:41:06;;;;;;;1224.10;543.50;;;;;;;21.36;42.04;101407.59;5016656;28;20071;-82
2024/02/15 08:43:32;;;;;;;1230.65;545.88;;;;;;;21.45;42.29;101426.09;5025129;28;20080;-82
2024/02/15 08:45:58;;;;;;;1220.25;545.70;;;;;;;21.43;42.34;101426.25;5023000;28;21697;-82
2024/02/15 08:48:24;;;;;;;1285.22;573.70;;;;;;;21.44;42.08;101427.91;5021543;28;20041;-83
2024/02/15 08:50:50;;;;;;;1282.75;572.17;;;;;;;21.33;42.37;101407.94;5020554;28;20099;-82
2024/02/15 08:53:18;;;;;;;1252.90;566.30;;;;;;;21.26;42.39;101398.22;5017987;28;20141;-83
2024/02/15 08:55:45;;;;;;;1265.57;578.97;;;;;;;21.28;42.20;101399.69;5021390;28;20099;-82
2024/02/15 08:58:10;;;;;;;1267.97;583.00;;;;;;;20.84;42.09;101327.13;5023725;28;20061;-82
2024/02/15 09:00:37;;;;;;;1291.80;590.88;;;;;;;21.39;42.19;101409.91;5024443;28;20083;-81
2024/02/15 09:03:03;;;;;;;1323.30;608.88;;;;;;;21.39;42.22;101409.91;5008722;28;20061;-82
2024/02/15 09:05:28;;;;;;;1352.72;623.65;;;;;;;21.24;42.44;101393.09;5023388;28;20038;-82
2024/02/15 09:07:54;;;;;;;1360.35;633.72;;;;;;;21.39;42.17;101409.91;5021080;28;20735;-82
2024/02/15 09:10:24;;;;;;;1394.88;644.53;;;;;;;21.37;42.32;101417.19;5003660;28;21274;-84
2024/02/15 09:12:49;;;;;;;1418.80;654.17;;;;;;;21.19;42.56;101386.66;5021090;28;20034;-82
2024/02/15 09:15:15;;;;;;;1442.72;664.20;;;;;;;21.18;42.59;101390.28;5020073;28;20038;-82
2024/02/15 09:17:42;;;;;;;1494.07;701.38;;;;;;;21.13;42.51;101391.63;5022596;28;20045;-82
2024/02/15 09:20:14;;;;;;;1527.85;723.17;;;;;;;21.27;42.58;101411.28;5019334;28;20071;-82
2024/02/15 09:22:50;;;;;;;1522.53;721.13;;;;;;;21.27;42.50;101407.81;5021502;28;20099;-81
2024/02/15 09:25:16;;;;;;;1548.43;727.78;;;;;;;21.19;42.58;101397.25;5020762;28;20041;-81
2024/02/15 09:27:42;;;;;;;1551.28;729.45;;;;;;;21.34;42.63;101424.66;5020770;28;20080;-81
2024/02/15 09:30:09;;;;;;;1554.60;726.92;;;;;;;21.30;42.34;101413.59;5019626;28;20093;-81
2024/02/15 09:32:39;;;;;;;1557.43;728.92;;;;;;;21.32;42.56;101416.88;5007161;28;20036;-80
2024/02/15 09:35:08;;;;;;;1532.13;721.92;;;;;;;21.29;42.41;101411.13;5018027;28;20045;-79
2024/02/15 09:37:35;;;;;;;1530.07;719.92;;;;;;;21.15;42.57;101377.38;5020997;28;20045;-80
2024/02/15 09:40:06;;;;;;;1558.97;731.08;;;;;;;21.40;42.23;101408.06;5017731;28;21270;-80
2024/02/15 09:42:34;;;;;;;1530.82;719.92;;;;;;;21.21;43.23;101389.94;5018029;28;20034;-82
2024/02/15 09:45:02;;;;;;;1544.88;730.10;;;;;;;21.40;42.15;101382.41;4999952;28;20045;-82
2024/02/15 09:47:34;;;;;;;1551.75;735.40;;;;;;;21.79;41.87;101391.19;4991279;28;20116;-77
2024/02/15 09:50:01;;;;;;;1508.32;715.38;;;;;;;22.07;40.89;101373.72;5014741;28;20049;-80
2024/02/15 09:52:31;;;;;;;1489.45;718.25;;;;;;;22.46;40.21;101362.88;4951167;28;20126;-82
2024/02/15 09:54:58;;;;;;;1489.10;725.03;;;;;;;22.68;39.62;101344.34;5014381;28;20037;-82
2024/02/15 09:57:24;;;;;;;1472.82;715.47;;;;;;;23.10;39.14;101373.66;5017455;28;21779;-79
2024/02/15 09:59:49;;;;;;;1479.47;718.30;;;;;;;23.18;39.33;101383.34;5018962;28;20113;-79
2024/02/15 10:02:16;;;;;;;1475.78;715.92;;;;;;;23.23;39.41;101386.25;5017890;28;20065;-80
2024/02/15 10:04:42;;;;;;;1497.97;722.78;;;;;;;23.16;39.56;101388.00;5019905;28;20052;-81
2024/02/15 10:07:08;;;;;;;1515.80;727.55;;;;;;;23.11;39.64;101388.56;4979513;28;20133;-81
2024/02/15 10:09:36;;;;;;;1528.60;733.58;;;;;;;23.03;40.01;101390.53;5020090;28;20037;-84
2024/02/15 10:12:06;;;;;;;1526.68;732.50;;;;;;;22.86;39.85;101366.03;4994083;28;20091;-82
2024/02/15 10:14:33;;;;;;;;;;;;;;;22.99;40.32;101392.75;5023587;28;20057;-82
2024/02/15 10:17:09;;;;;;;1565.45;740.63;;;;;;;22.94;40.09;101384.50;5018514;28;20434;-81
2024/02/15 10:19:35;;;;;;;1564.85;738.33;;;;;;;23.04;39.98;101397.50;5024401;28;20073;-83
2024/02/15 10:22:08;;;;;;;1594.85;750.40;;;;;;;22.74;40.49;101372.78;4988668;28;20053;-83
2024/02/15 10:24:35;;;;;;;1580.43;746.13;;;;;;;22.76;40.56;101390.19;5015330;28;20077;-82
2024/02/15 10:27:06;;;;;;;1621.15;755.03;;;;;;;22.85;40.84;101391.78;4993489;28;20433;-79
2024/02/15 10:29:33;;;;;;;1637.00;757.60;;;;;;;22.81;40.70;101377.19;5026816;28;20041;-82
2024/02/15 10:32:00;;;;;;;1805.47;817.40;;;;;;;23.05;40.24;101367.28;4992213;28;20038;-80
2024/02/15 10:34:30;;;;;;;1786.70;820.78;;;;;;;22.74;41.27;101386.88;5008383;28;20864;-82
2024/02/15 10:37:12;;;;;;;1749.18;782.92;;;;;;;22.69;41.43;101377.84;5006912;28;20284;-83
2024/02/15 10:39:37;;;;;;;1737.03;776.40;;;;;;;22.72;41.51;101372.16;4985884;28;20534;-81
2024/02/15 10:42:05;;;;;;;1747.82;780.17;;;;;;;22.44;41.68;101346.31;4995935;28;20041;-82
2024/02/15 10:44:33;;;;;;;1721.82;786.47;;;;;;;22.55;41.76;101364.41;4959204;28;20619;-80
2024/02/15 10:47:00;;;;;;;1720.57;803.50;;;;;;;22.56;41.94;101357.25;5023635;28;20060;-80
2024/02/15 10:49:27;;;;;;;1761.05;819.67;;;;;;;22.46;42.33;101362.03;4980070;28;20552;-80
2024/02/15 10:51:58;;;;;;;1750.43;815.92;;;;;;;22.33;42.25;101328.19;5023693;28;20053;-79
2024/02/15 10:54:36;;;;;;;1769.15;818.35;;;;;;;22.54;42.06;101352.13;4986565;28;20044;-81
2024/02/15 10:57:04;;;;;;;1888.43;851.97;;;;;;;22.41;42.08;101343.16;5021973;28;20037;-80